Time;durP1;ratioP1;P1;durP2;ratioP2;P2;SDS_P1;SDS_P2;PMS_P1;PMS_P2;Temp;Humidity;BMP_temperature;BMP_pressure;BME280_temperature;BME280_humidity;BME280_pressure;Samples;Min_cycle;Max_cycle;Signal;HPM_P1;HPM_P2
2021/09/29 00:01:43;;;;;;;;;;;;;;;11.90;91.19;101644.78;5033980;28;19929;-49
2021/09/29 00:04:10;;;;;;;;;;;;;;;11.96;90.96;101642.66;5033915;28;19929;-54
2021/09/29 00:06:37;;;;;;;;;;;;;;;11.97;91.11;101641.72;5032472;28;20783;-52
2021/09/29 00:09:03;;;;;;;;;;;;;;;11.94;91.41;101636.66;5047993;28;19925;-51
2021/09/29 00:11:30;;;;;;;;;;;;;;;11.92;91.10;101629.72;5033080;28;19925;-51
2021/09/29 00:13:57;;;;;;;;;;;;;;;11.91;91.21;101630.66;5033670;28;19929;-53
2021/09/29 00:16:23;;;;;;;;;;;;;;;11.90;91.23;101631.59;5032272;28;20036;-53
2021/09/29 00:18:51;;;;;;;;;;;;;;;11.88;91.02;101629.06;5047714;28;19983;-54
2021/09/29 00:21:17;;;;;;;;;;;;;;;11.89;91.20;101625.50;5032937;28;20391;-53
2021/09/29 00:23:44;;;;;;;;;;;;;;;11.96;90.76;101624.22;5034921;28;19975;-46
2021/09/29 00:26:12;;;;;;;;;;;;;;;11.89;91.58;101622.84;5046208;28;20391;-41
2021/09/29 00:28:39;;;;;;;;;;;;;;;11.95;91.24;101611.97;5030679;28;20292;-41
2021/09/29 00:31:06;;;;;;;;;;;;;;;11.92;91.48;101612.13;5031717;28;19972;-45
2021/09/29 00:33:36;;;;;;;;;;;;;;;12.02;91.27;101607.19;5031817;28;20016;-43
2021/09/29 00:36:03;;;;;;;;;;;;;;;12.06;91.20;101606.06;5032383;28;19932;-42
2021/09/29 00:38:31;;;;;;;;;;;;;;;12.03;91.53;101598.34;5047048;28;20276;-41
2021/09/29 00:40:58;;;;;;;;;;;;;;;12.03;91.35;101597.50;5034596;28;19925;-41
2021/09/29 00:43:25;;;;;;;;;;;;;;;12.03;91.82;101594.88;5034783;28;19925;-45
2021/09/29 00:45:52;;;;;;;;;;;;;;;11.99;91.86;101586.28;5033235;28;19925;-46
2021/09/29 00:48:19;;;;;;;;;;;;;;;12.07;91.40;101589.31;5034571;28;19972;-45
2021/09/29 00:50:45;;;;;;;;;;;;;;;12.13;91.14;101582.81;5034775;28;19929;-41
2021/09/29 00:53:12;;;;;;;;;;;;;;;12.13;91.10;101577.53;5031234;28;20315;-42
2021/09/29 00:55:39;;;;;;;;;;;;;;;12.12;90.93;101570.56;5031854;28;20333;-42
2021/09/29 00:58:05;;;;;;;;;;;;;;;12.13;91.32;101564.38;5049444;28;19940;-41
2021/09/29 01:00:32;;;;;;;;;;;;;;;12.17;91.29;101568.50;5034309;28;20342;-45
2021/09/29 01:03:00;;;;;;;;;;;;;;;12.19;90.96;101561.38;5049460;28;19929;-42
2021/09/29 01:05:26;;;;;;;;;;;;;;;12.19;90.54;101556.09;5032385;28;19925;-44
2021/09/29 01:07:55;;;;;;;;;;;;;;;12.22;90.27;101544.50;5046122;28;19925;-43
2021/09/29 01:10:42;;;;;;;;;;;;;;;12.22;90.49;101548.00;5032117;28;20020;-40
2021/09/29 01:13:15;;;;;;;;;;;;;;;12.23;90.52;101541.78;5029335;28;19929;-50
2021/09/29 01:15:46;;;;;;;;;;;;;;;12.24;90.55;101532.91;5047118;28;19975;-53
2021/09/29 01:18:13;;;;;;;;;;;;;;;12.29;90.33;101527.38;5032211;28;19979;-50
2021/09/29 01:20:50;;;;;;;;;;;;;;;12.29;90.38;101530.00;5033341;28;19933;-52
2021/09/29 01:23:35;;;;;;;;;;;;;;;12.22;90.14;101529.53;5029592;28;19925;-54
2021/09/29 01:26:10;;;;;;;;;;;;;;;12.27;89.84;101524.81;5032823;28;19925;-49
2021/09/29 01:28:38;;;;;;;;;;;;;;;12.23;89.68;101517.19;5048994;28;19925;-50
2021/09/29 01:31:05;;;;;;;;;;;;;;;12.21;90.08;101509.38;5033963;28;19991;-51
2021/09/29 01:33:33;;;;;;;;;;;;;;;12.29;89.83;101506.25;5031548;28;19972;-43
2021/09/29 01:36:00;;;;;;;;;;;;;;;12.30;88.88;101506.16;5046538;28;20407;-42
2021/09/29 01:38:27;;;;;;;;;;;;;;;12.30;88.54;101503.53;5045680;28;19971;-52
2021/09/29 01:40:53;;;;;;;;;;;;;;;12.30;88.59;101502.69;5029185;28;19971;-53
2021/09/29 01:43:20;;;;;;;;;;;;;;;12.33;88.70;101498.06;5028929;28;20013;-54
2021/09/29 01:45:47;;;;;;;;;;;;;;;12.32;87.94;101493.75;5029611;28;20016;-45
2021/09/29 01:48:18;;;;;;;;;;;;;;;12.27;88.41;101493.19;5029722;28;19925;-43
2021/09/29 01:50:45;;;;;;;;;;;;;;;12.32;87.84;101483.19;5032203;28;19925;-42
2021/09/29 01:53:11;;;;;;;;;;;;;;;12.29;88.24;101488.63;5035886;28;20457;-44
2021/09/29 01:55:38;;;;;;;;;;;;;;;12.26;88.16;101480.09;5053248;28;19978;-42
2021/09/29 01:58:05;;;;;;;;;;;;;;;12.30;87.99;101482.44;5068188;28;19930;-45
2021/09/29 02:00:32;;;;;;;;;;;;;;;12.25;88.15;101476.59;5050042;28;19982;-46
2021/09/29 02:03:00;;;;;;;;;;;;;;;12.21;87.94;101472.44;5050033;28;19929;-52
2021/09/29 02:05:36;;;;;;;;;;;;;;;12.21;88.75;101475.09;5050446;28;20297;-51
2021/09/29 02:08:06;;;;;;;;;;;;;;;12.16;88.83;101471.88;5048431;28;19990;-51
2021/09/29 02:10:33;;;;;;;;;;;;;;;12.14;88.83;101465.88;5049979;28;19931;-53
2021/09/29 02:13:00;;;;;;;;;;;;;;;12.18;88.57;101465.56;5047764;28;19929;-48
2021/09/29 02:15:26;;;;;;;;;;;;;;;12.09;89.00;101452.13;5050216;28;20461;-50
2021/09/29 02:17:53;;;;;;;;;;;;;;;12.06;88.68;101444.41;5048781;28;20011;-51
2021/09/29 02:20:20;;;;;;;;;;;;;;;12.08;88.59;101443.38;5049046;28;19975;-54
2021/09/29 02:22:46;;;;;;;;;;;;;;;12.08;88.53;101443.38;5052314;28;19929;-53
2021/09/29 02:25:13;;;;;;;;;;;;;;;12.03;88.55;101437.53;5052868;28;20309;-53
2021/09/29 02:27:40;;;;;;;;;;;;;;;11.98;89.02;101429.91;5052604;28;19978;-41
2021/09/29 02:30:07;;;;;;;;;;;;;;;11.96;88.62;101434.41;5051302;28;19932;-41
2021/09/29 02:32:35;;;;;;;;;;;;;;;12.02;88.68;101427.09;5049230;28;19929;-42
2021/09/29 02:35:02;;;;;;;;;;;;;;;11.99;88.87;101423.69;5049596;28;19931;-46
2021/09/29 02:37:29;;;;;;;;;;;;;;;11.96;89.23;101423.03;5050075;28;19970;-44
2021/09/29 02:39:55;;;;;;;;;;;;;;;11.95;88.81;101416.91;5050390;28;19925;-40
2021/09/29 02:42:22;;;;;;;;;;;;;;;11.94;88.67;101411.69;5048176;28;19972;-43
2021/09/29 02:44:49;;;;;;;;;;;;;;;11.89;89.20;101409.38;5051273;28;19933;-41
2021/09/29 02:47:15;;;;;;;;;;;;;;;11.86;89.29;101406.06;5049958;28;19974;-44
2021/09/29 02:49:42;;;;;;;;;;;;;;;11.87;89.12;101405.97;5052389;28;19925;-49
2021/09/29 02:52:09;;;;;;;;;;;;;;;11.90;89.09;101413.69;5050786;28;19978;-51
2021/09/29 02:54:35;;;;;;;;;;;;;;;11.86;89.03;101406.88;5048511;28;20016;-53
2021/09/29 02:57:02;;;;;;;;;;;;;;;11.80;89.63;101396.75;5048072;28;20002;-51
2021/09/29 02:59:28;;;;;;;;;;;;;;;11.77;89.19;101396.94;5048780;28;19979;-50
2021/09/29 03:01:55;;;;;;;;;;;;;;;11.75;90.27;101396.19;5049572;28;19982;-52
2021/09/29 03:04:22;;;;;;;;;;;;;;;11.74;89.60;101394.47;5049588;28;19924;-48
2021/09/29 03:06:48;;;;;;;;;;;;;;;11.73;89.61;101390.16;5048653;28;20328;-49
2021/09/29 03:09:15;;;;;;;;;;;;;;;11.70;89.47;101395.59;5049680;28;19928;-52
2021/09/29 03:11:42;;;;;;;;;;;;;;;11.69;89.42;101388.66;5047179;28;19983;-50
2021/09/29 03:14:08;;;;;;;;;;;;;;;11.70;89.70;101388.56;5048808;28;19929;-54
2021/09/29 03:16:35;;;;;;;;;;;;;;;11.67;89.63;101396.66;5048590;28;20547;-48
2021/09/29 03:19:02;;;;;;;;;;;;;;;11.66;89.65;101387.91;5050548;28;19932;-53
2021/09/29 03:21:30;;;;;;;;;;;;;;;11.61;89.79;101382.06;5055652;28;19932;-50
2021/09/29 03:23:56;;;;;;;;;;;;;;;11.58;89.87;101384.88;5055594;28;19928;-53
2021/09/29 03:26:23;;;;;;;;;;;;;;;11.57;89.84;101377.91;5054496;28;20338;-42
2021/09/29 03:28:50;;;;;;;;;;;;;;;11.63;89.55;101377.56;5056019;28;20331;-54
2021/09/29 03:31:16;;;;;;;;;;;;;;;11.54;89.61;101375.47;5056282;28;19971;-52
2021/09/29 03:33:43;;;;;;;;;;;;;;;11.47;90.39;101364.47;5055842;28;19961;-53
2021/09/29 03:36:10;;;;;;;;;;;;;;;11.41;90.26;101359.56;5055592;28;20460;-52
2021/09/29 03:38:36;;;;;;;;;;;;;;;11.46;90.45;101359.28;5055470;28;20379;-45
2021/09/29 03:41:03;;;;;;;;;;;;;;;11.45;90.45;101354.94;5052076;28;19932;-43
2021/09/29 03:43:30;;;;;;;;;;;;;;;11.39;90.46;101360.59;5050737;28;19983;-52
2021/09/29 03:45:57;;;;;;;;;;;;;;;11.29;91.00;101345.34;5054777;28;20427;-51
2021/09/29 03:48:23;;;;;;;;;;;;;;;11.33;90.66;101346.03;5055821;28;20279;-51
2021/09/29 03:50:50;;;;;;;;;;;;;;;11.24;90.97;101350.03;5053563;28;19937;-55
2021/09/29 03:53:17;;;;;;;;;;;;;;;11.25;90.79;101340.38;5049602;28;19925;-48
2021/09/29 03:55:43;;;;;;;;;;;;;;;11.21;91.62;101334.44;5051092;28;19963;-47
2021/09/29 03:58:10;;;;;;;;;;;;;;;11.23;91.71;101335.19;5053041;28;20021;-53
2021/09/29 04:00:36;;;;;;;;;;;;;;;11.15;91.50;101324.25;5051744;28;19925;-53
2021/09/29 04:03:03;;;;;;;;;;;;;;;11.13;92.08;101329.63;5052615;28;19933;-53
2021/09/29 04:05:30;;;;;;;;;;;;;;;11.16;91.74;101318.91;5054164;28;19928;-49
2021/09/29 04:07:56;;;;;;;;;;;;;;;11.14;92.21;101326.06;5053389;28;19943;-53
2021/09/29 04:10:23;;;;;;;;;;;;;;;11.11;92.24;101313.09;5052656;28;19980;-52
2021/09/29 04:12:50;;;;;;;;;;;;;;;11.13;92.50;101313.00;5050645;28;19935;-51
2021/09/29 04:15:17;;;;;;;;;;;;;;;11.14;92.66;101314.69;5034507;28;19932;-53
2021/09/29 04:17:43;;;;;;;;;;;;;;;11.21;92.23;101316.00;5052283;28;19924;-51
2021/09/29 04:20:10;;;;;;;;;;;;;;;11.22;92.55;101317.72;5054937;28;19925;-54
2021/09/29 04:22:37;;;;;;;;;;;;;;;11.23;92.45;101314.13;5053343;28;19978;-43
2021/09/29 04:25:04;;;;;;;;;;;;;;;11.26;92.63;101311.31;5050967;28;20039;-41
2021/09/29 04:27:30;;;;;;;;;;;;;;;11.25;93.18;101317.53;5048294;28;19929;-54
2021/09/29 04:29:57;;;;;;;;;;;;;;;11.36;94.07;101318.63;5051697;28;20352;-50
2021/09/29 04:32:24;;;;;;;;;;;;;;;11.42;93.21;101310.38;5052863;28;20368;-48
2021/09/29 04:34:50;;;;;;;;;;;;;;;11.40;93.58;101306.97;5054158;28;19928;-50
2021/09/29 04:37:17;;;;;;;;;;;;;;;11.41;93.20;101312.19;5051131;28;19960;-49
2021/09/29 04:39:44;;;;;;;;;;;;;;;11.46;93.84;101309.25;5051852;28;19924;-50
2021/09/29 04:42:10;;;;;;;;;;;;;;;11.39;94.73;101305.31;5050135;28;20587;-50
2021/09/29 04:44:37;;;;;;;;;;;;;;;11.45;94.88;101307.53;5053674;28;19951;-50
2021/09/29 04:47:04;;;;;;;;;;;;;;;11.46;94.11;101309.25;5049859;28;19925;-51
2021/09/29 04:49:31;;;;;;;;;;;;;;;11.48;93.57;101307.38;5051307;28;19929;-50
2021/09/29 04:51:57;;;;;;;;;;;;;;;11.53;93.78;101310.56;5036718;28;19926;-50
2021/09/29 04:54:24;;;;;;;;;;;;;;;11.55;93.52;101311.31;5054439;28;19925;-53
2021/09/29 04:56:51;;;;;;;;;;;;;;;11.59;92.88;101312.81;5050368;28;19932;-52
2021/09/29 04:59:18;;;;;;;;;;;;;;;11.57;93.22;101305.94;5051162;28;19964;-51
2021/09/29 05:01:45;;;;;;;;;;;;;;;11.57;93.58;101311.22;5051701;28;20546;-52
2021/09/29 05:04:11;;;;;;;;;;;;;;;11.60;93.22;101303.13;5049939;28;20326;-50
2021/09/29 05:06:39;;;;;;;;;;;;;;;11.66;93.93;101298.31;5051190;28;19929;-53
2021/09/29 05:09:06;;;;;;;;;;;;;;;11.60;93.40;101306.63;5051491;28;19931;-53
2021/09/29 05:11:39;;;;;;;;;;;;;;;11.65;93.15;101304.53;5048581;28;19925;-53
2021/09/29 05:14:06;;;;;;;;;;;;;;;11.60;92.80;101298.72;5054030;28;19978;-50
2021/09/29 05:16:33;;;;;;;;;;;;;;;11.64;92.57;101300.22;5053925;28;19925;-51
2021/09/29 05:18:59;;;;;;;;;;;;;;;11.76;92.05;101295.94;5053574;28;19931;-54
2021/09/29 05:21:26;;;;;;;;;;;;;;;11.75;92.47;101296.03;5051646;28;19925;-51
2021/09/29 05:23:53;;;;;;;;;;;;;;;11.75;92.03;101293.41;5050973;28;20444;-50
2021/09/29 05:26:19;;;;;;;;;;;;;;;11.72;92.28;101299.72;5049795;28;19952;-53
2021/09/29 05:28:48;;;;;;;;;;;;;;;11.72;93.10;101291.81;5050970;28;19929;-50
2021/09/29 05:31:14;;;;;;;;;;;;;;;11.63;93.33;101292.38;5049399;28;20435;-52
2021/09/29 05:33:41;;;;;;;;;;;;;;;11.70;93.77;101284.94;5051031;28;20388;-49
2021/09/29 05:36:08;;;;;;;;;;;;;;;11.64;93.96;101284.41;5051322;28;20395;-51
2021/09/29 05:38:34;;;;;;;;;;;;;;;11.62;94.88;101286.28;5067651;28;19974;-50
2021/09/29 05:41:01;;;;;;;;;;;;;;;11.64;94.79;101287.03;5064811;28;19932;-51
2021/09/29 05:43:27;;;;;;;;;;;;;;;11.56;95.44;101286.69;5049412;28;19925;-50
2021/09/29 05:45:54;;;;;;;;;;;;;;;11.60;96.01;101280.28;5050980;28;19963;-50
2021/09/29 05:48:21;;;;;;;;;;;;;;;11.64;96.64;101287.03;5051080;28;19933;-49
2021/09/29 05:50:47;;;;;;;;;;;;;;;11.65;95.66;101279.97;5050977;28;19925;-50
2021/09/29 05:53:14;;;;;;;;;;;;;;;11.72;95.31;101280.44;5050555;28;19979;-49
2021/09/29 05:55:41;;;;;;;;;;;;;;;11.71;95.97;101276.97;5050613;28;19936;-40
2021/09/29 05:58:07;;;;;;;;;;;;;;;11.72;95.94;101275.16;5048604;28;19935;-49
2021/09/29 06:00:34;;;;;;;;;;;;;;;11.66;96.37;101273.78;5050623;28;19971;-48
2021/09/29 06:03:01;;;;;;;;;;;;;;;11.72;96.59;101277.81;5050691;28;19928;-52
2021/09/29 06:05:28;;;;;;;;;;;;;;;11.65;97.32;101280.81;5050792;28;19924;-47
2021/09/29 06:07:54;;;;;;;;;;;;;;;11.71;96.40;101276.09;5050210;28;19929;-47
2021/09/29 06:10:21;;;;;;;;;;;;;;;11.76;96.65;101274.03;5051143;28;19929;-49
2021/09/29 06:12:47;;;;;;;;;;;;;;;11.79;96.76;101279.97;5053363;28;19970;-50
2021/09/29 06:15:22;;;;;;;;;;;;;;;11.79;97.06;101279.97;5051653;28;19956;-48
2021/09/29 06:17:58;;;;;;;;;;;;;;;11.73;97.51;101284.78;5050812;28;19931;-51
2021/09/29 06:20:27;;;;;;;;;;;;;;;11.78;97.41;101283.53;5050358;28;19931;-47
2021/09/29 06:22:53;;;;;;;;;;;;;;;11.66;98.32;101285.16;5063742;28;19998;-51
2021/09/29 06:25:21;;;;;;;;;;;;;;;11.80;98.15;101283.44;5050389;28;19970;-49
2021/09/29 06:27:49;;;;;;;;;;;;;;;11.75;98.92;101278.47;5047381;28;19925;-42
2021/09/29 06:30:16;;;;;;;;;;;;;;;11.75;98.75;101277.59;5049493;28;19925;-41
2021/09/29 06:32:43;;;;;;;;;;;;;;;11.81;98.60;101270.16;5065427;28;19924;-44
2021/09/29 06:35:10;;;;;;;;;;;;;;;11.82;98.84;101271.00;5067808;28;20463;-41
2021/09/29 06:37:41;;;;;;;;;;;;;;;11.73;98.94;101263.69;5052638;28;20376;-40
2021/09/29 06:40:09;;;;;;;;;;;;;;;11.71;100.00;101271.69;5051409;28;19986;-43
2021/09/29 06:42:35;;;;;;;;;;;;;;;11.72;99.98;101265.47;5048880;28;19928;-43
2021/09/29 06:45:02;;;;;;;;;;;;;;;11.77;99.94;101265.19;5049805;28;19928;-50
2021/09/29 06:47:29;;;;;;;;;;;;;;;11.78;100.00;101269.50;5049676;28;19924;-50
2021/09/29 06:49:56;;;;;;;;;;;;;;;11.76;100.00;101260.84;5050302;28;19943;-50
2021/09/29 06:52:22;;;;;;;;;;;;;;;11.91;100.00;101264.31;5049566;28;20319;-51
2021/09/29 06:54:49;;;;;;;;;;;;;;;11.84;100.00;101256.78;5054387;28;19929;-50
2021/09/29 06:57:15;;;;;;;;;;;;;;;11.86;100.00;101264.56;5051279;28;19932;-48
2021/09/29 06:59:43;;;;;;;;;;;;;;;11.85;100.00;101262.91;5052680;28;19982;-53
2021/09/29 07:02:11;;;;;;;;;;;;;;;11.93;100.00;101257.13;5053530;28;19931;-51
2021/09/29 07:04:37;;;;;;;;;;;;;;;12.02;100.00;101253.09;5054275;28;19929;-50
2021/09/29 07:07:04;;;;;;;;;;;;;;;11.94;100.00;101253.56;5069054;28;19978;-48
2021/09/29 07:09:31;;;;;;;;;;;;;;;11.90;100.00;101252.94;5053577;28;20752;-52
2021/09/29 07:11:57;;;;;;;;;;;;;;;11.93;100.00;101265.91;5051360;28;19929;-41
2021/09/29 07:14:28;;;;;;;;;;;;;;;12.00;100.00;101261.94;5052884;28;19924;-43
2021/09/29 07:16:55;;;;;;;;;;;;;;;12.03;100.00;101255.63;5055858;28;19929;-41
2021/09/29 07:19:21;;;;;;;;;;;;;;;11.99;100.00;101260.25;5054998;28;19925;-40
2021/09/29 07:21:48;;;;;;;;;;;;;;;12.03;100.00;101255.63;5052946;28;19975;-42
2021/09/29 07:24:15;;;;;;;;;;;;;;;12.07;100.00;101253.66;5053233;28;19925;-41
2021/09/29 07:26:41;;;;;;;;;;;;;;;12.09;100.00;101262.28;5052056;28;19936;-50
2021/09/29 07:29:10;;;;;;;;;;;;;;;12.12;100.00;101246.28;5070412;28;19929;-52
2021/09/29 07:31:39;;;;;;;;;;;;;;;12.13;100.00;101255.88;5055774;28;19924;-51
2021/09/29 07:34:07;;;;;;;;;;;;;;;12.15;100.00;101251.38;5055795;28;19925;-53
2021/09/29 07:36:34;;;;;;;;;;;;;;;12.14;100.00;101247.88;5055692;28;19971;-49
2021/09/29 07:39:01;;;;;;;;;;;;;;;12.10;100.00;101250.81;5053993;28;20295;-48
2021/09/29 07:41:28;;;;;;;;;;;;;;;12.06;100.00;101244.88;5067577;28;19975;-50
2021/09/29 07:43:55;;;;;;;;;;;;;;;12.12;100.00;101238.38;5068366;28;20326;-47
2021/09/29 07:46:21;;;;;;;;;;;;;;;12.21;100.00;101234.28;5052921;28;19929;-48
2021/09/29 07:48:48;;;;;;;;;;;;;;;12.23;100.00;101229.75;5068330;28;20032;-40
2021/09/29 07:51:15;;;;;;;;;;;;;;;12.30;100.00;101231.06;5051610;28;19986;-46
2021/09/29 07:53:41;;;;;;;;;;;;;;;12.27;100.00;101234.75;5054717;28;19998;-46
2021/09/29 07:56:08;;;;;;;;;;;;;;;12.27;100.00;101229.47;5054129;28;19978;-48
2021/09/29 07:58:35;;;;;;;;;;;;;;;12.24;100.00;101227.00;5051224;28;20394;-47
2021/09/29 08:01:01;;;;;;;;;;;;;;;12.25;100.00;101233.97;5052946;28;20395;-51
2021/09/29 08:03:28;;;;;;;;;;;;;;;12.28;100.00;101228.50;5052165;28;19939;-48
2021/09/29 08:06:00;;;;;;;;;;;;;;;12.36;100.00;101229.78;5050869;28;20008;-49
2021/09/29 08:08:27;;;;;;;;;;;;;;;12.26;100.00;101240.94;5052463;28;19928;-51
2021/09/29 08:10:53;;;;;;;;;;;;;;;12.30;100.00;101236.31;5053601;28;19975;-55
2021/09/29 08:13:20;;;;;;;;;;;;;;;12.38;100.00;101236.66;5054523;28;20426;-53
2021/09/29 08:15:46;;;;;;;;;;;;;;;12.40;100.00;101236.56;5046855;28;20002;-53
2021/09/29 08:18:14;;;;;;;;;;;;;;;12.42;100.00;101234.66;5049581;28;20380;-54
2021/09/29 08:20:41;;;;;;;;;;;;;;;12.41;100.00;101217.16;5052163;28;19979;-54
2021/09/29 08:23:44;;;;;;;;;;;;;;;12.46;100.00;101225.59;5049718;28;19928;-55
2021/09/29 08:28:49;;;;;;;;;;;;;;;12.45;100.00;101234.47;5052225;28;19925;-54
2021/09/29 08:31:34;;;;;;;;;;;;;;;12.48;100.00;101236.88;5054871;28;19925;-51
2021/09/29 08:34:14;;;;;;;;;;;;;;;12.51;100.00;101245.41;5051566;28;20386;-53
2021/09/29 08:36:49;;;;;;;;;;;;;;;12.56;100.00;101247.78;5049970;28;19929;-54
2021/09/29 08:39:29;;;;;;;;;;;;;;;12.58;100.00;101245.84;5052929;28;20350;-53
2021/09/29 08:42:10;;;;;;;;;;;;;;;12.65;100.00;101251.56;5054691;28;19951;-54
2021/09/29 08:44:49;;;;;;;;;;;;;;;12.67;100.00;101257.59;5068056;28;19929;-54
2021/09/29 08:47:31;;;;;;;;;;;;;;;12.71;100.00;101258.22;5054599;28;19947;-45
2021/09/29 09:16:57;;;;;;;;;;;;;;;12.90;98.15;101269.25;5051165;28;19932;-43
2021/09/29 09:19:25;;;;;;;;;;;;;;;12.95;98.37;101277.69;5049240;28;19975;-46
2021/09/29 09:21:54;;;;;;;;;;;;;;;13.02;97.38;101278.13;5053768;28;19932;-46
2021/09/29 09:24:25;;;;;;;;;;;;;;;13.13;96.34;101272.06;5052782;28;19925;-46
2021/09/29 09:27:08;;;;;;;;;;;;;;;13.05;95.84;101275.25;5048920;28;19971;-45
2021/09/29 09:29:44;;;;;;;;;;;;;;;12.95;96.07;101276.84;5049268;28;19933;-49
2021/09/29 09:32:12;;;;;;;;;;;;;;;12.97;97.38;101283.69;5050269;28;19932;-55
2021/09/29 09:34:39;;;;;;;;;;;;;;;13.06;95.08;101279.59;5049164;28;19978;-53
2021/09/29 09:37:09;;;;;;;;;;;;;;;13.04;94.83;101275.38;5065114;28;19932;-45
2021/09/29 09:39:36;;;;;;;;;;;;;;;13.04;95.55;101288.56;5051643;28;20345;-49
2021/09/29 09:42:03;;;;;;;;;;;;;;;12.95;94.50;101282.97;5053297;28;19925;-48
2021/09/29 09:44:34;;;;;;;;;;;;;;;12.96;95.20;101284.66;5050526;28;19960;-46
2021/09/29 09:47:04;;;;;;;;;;;;;;;12.93;94.36;101282.22;5048387;28;19932;-45
2021/09/29 09:49:32;;;;;;;;;;;;;;;12.94;94.81;101291.84;5064464;28;20021;-47
2021/09/29 09:52:01;;;;;;;;;;;;;;;12.94;94.84;101297.13;5049896;28;19928;-45
2021/09/29 09:54:35;;;;;;;;;;;;;;;12.78;96.17;101293.84;5052198;28;19925;-48
2021/09/29 09:57:02;;;;;;;;;;;;;;;12.75;96.09;101305.44;5049049;28;20543;-45
2021/09/29 09:59:29;;;;;;;;;;;;;;;12.73;96.10;101309.13;5049196;28;19925;-46
2021/09/29 10:01:56;;;;;;;;;;;;;;;12.60;96.98;101312.56;5050848;28;19925;-45
2021/09/29 10:04:23;;;;;;;;;;;;;;;12.65;95.67;101314.91;5050327;28;19925;-45
2021/09/29 10:06:50;;;;;;;;;;;;;;;12.65;95.55;101321.03;5048565;28;19924;-45
2021/09/29 10:12:00;;;;;;;;;;;;;;;12.61;95.97;101318.69;5047591;28;19925;-47
2021/09/29 10:14:49;;;;;;;;;;;;;;;12.67;96.02;101315.66;5041646;28;19928;-48
2021/09/29 10:26:08;;;;;;;;;;;;;;;12.55;95.85;101319.94;5035209;28;19928;-48
2021/09/29 10:28:38;;;;;;;;;;;;;;;12.52;97.34;101321.00;5047495;28;19932;-46
2021/09/29 10:31:22;;;;;;;;;;;;;;;12.53;97.25;101321.84;5049413;28;20640;-47
2021/09/29 10:34:02;;;;;;;;;;;;;;;12.39;97.72;101327.19;5050407;28;19925;-47
2021/09/29 10:37:11;;;;;;;;;;;;;;;12.48;97.10;101323.94;5049575;28;19932;-44
2021/09/29 10:42:19;;;;;;;;;;;;;;;12.37;97.67;101344.91;5047810;28;19925;-46
2021/09/29 11:04:35;;;;;;;;;;;;;;;12.43;97.99;101357.69;5051469;28;19932;-47
2021/09/29 11:12:09;;;;;;;;;;;;;;;12.38;96.54;101380.88;5046511;28;19983;-47
2021/09/29 11:31:36;;;;;;;;;;;;;;;12.05;94.89;101414.53;5048881;28;19929;-44
2021/09/29 12:12:15;;;;;;;;;;;;;;;11.84;95.81;101424.59;5055021;28;19925;-48
2021/09/29 12:14:52;;;;;;;;;;;;;;;11.93;96.29;101428.44;5068700;28;19929;-48
2021/09/29 12:17:23;;;;;;;;;;;;;;;11.96;96.68;101420.41;5069977;28;19925;-46
2021/09/29 12:19:58;;;;;;;;;;;;;;;12.14;97.33;101421.03;5054725;28;19982;-44
2021/09/29 12:22:26;;;;;;;;;;;;;;;12.25;96.43;101429.13;5054070;28;19924;-48
2021/09/29 12:24:59;;;;;;;;;;;;;;;12.61;96.69;101430.38;5070113;28;20024;-44
2021/09/29 12:27:33;;;;;;;;;;;;;;;13.09;99.36;101429.03;5049853;28;19925;-45
2021/09/29 12:30:33;;;;;;;;;;;;;;;13.14;95.79;101434.88;5065179;28;19925;-46
2021/09/29 12:33:49;;;;;;;;;;;;;;;13.24;96.13;101435.09;5052073;28;20007;-47
2021/09/29 12:36:00;;;;;;;;;;;;;;;13.29;96.14;101439.13;5049849;28;20003;-49
2021/09/29 12:38:34;;;;;;;;;;;;;;;13.25;94.78;101456.13;5049985;28;20295;-43
2021/09/29 12:41:01;;;;;;;;;;;;;;;13.35;94.92;101456.38;5051211;28;19935;-46
2021/09/29 12:43:27;;;;;;;;;;;;;;;13.31;87.63;101458.34;5035162;28;19971;-47
2021/09/29 12:45:54;;;;;;;;;;;;;;;13.25;90.38;101450.00;5053169;28;19967;-46
2021/09/29 12:48:24;;;;;;;;;;;;;;;13.22;89.68;101445.75;5054790;28;20509;-46
2021/09/29 12:50:53;;;;;;;;;;;;;;;13.15;89.63;101452.41;5051736;28;19951;-45
2021/09/29 12:53:34;;;;;;;;;;;;;;;12.94;88.05;101481.06;5045807;28;20023;-47
2021/09/29 12:56:07;;;;;;;;;;;;;;;12.90;90.45;101508.59;5050302;28;20023;-47
2021/09/29 12:58:34;;;;;;;;;;;;;;;12.75;92.21;101507.78;5052711;28;19940;-46
2021/09/29 13:01:01;;;;;;;;;;;;;;;12.70;90.98;101471.16;5050056;28;19929;-45
2021/09/29 13:03:28;;;;;;;;;;;;;;;12.46;89.89;101473.53;5051530;28;19971;-46
2021/09/29 13:05:57;;;;;;;;;;;;;;;12.40;88.54;101476.59;5051871;28;20392;-47
2021/09/29 13:08:24;;;;;;;;;;;;;;;12.42;91.20;101483.47;5049282;28;19999;-45
2021/09/29 13:10:51;;;;;;;;;;;;;;;12.53;91.94;101480.16;5050451;28;20605;-46
2021/09/29 13:13:18;;;;;;;;;;;;;;;12.61;91.21;101479.66;5048423;28;20284;-45
2021/09/29 13:15:51;;;;;;;;;;;;;;;12.74;92.66;101479.72;5051146;28;20360;-53
2021/09/29 13:18:24;;;;;;;;;;;;;;;12.80;91.74;101479.31;5051505;28;20115;-55
2021/09/29 13:36:50;;;;;;;;;;;;;;;13.78;94.03;101500.19;5050784;28;19932;-56
2021/09/29 13:39:17;;;;;;;;;;;;;;;13.92;92.80;101508.03;5050677;28;19933;-56
2021/09/29 13:41:46;;;;;;;;;;;;;;;14.06;94.99;101509.72;5052637;28;19951;-54
2021/09/29 13:44:13;;;;;;;;;;;;;;;14.16;94.87;101505.47;5053339;28;19932;-56
2021/09/29 13:46:39;;;;;;;;;;;;;;;14.29;93.53;101509.91;5053228;28;19979;-56
2021/09/29 13:49:07;;;;;;;;;;;;;;;14.45;92.36;101504.38;5068807;28;19924;-56
2021/09/29 13:51:35;;;;;;;;;;;;;;;14.57;90.77;101514.09;5051894;28;20406;-48
2021/09/29 13:54:15;;;;;;;;;;;;;;;14.58;85.06;101520.25;5049821;28;19971;-46
2021/09/29 14:30:08;;;;;;;;;;;;;;;14.60;74.20;101558.88;5062560;28;19928;-47
2021/09/29 14:32:32;;;;;;;;;;;;;;;14.56;76.03;101559.19;5049789;28;19929;-50
2021/09/29 14:34:59;;;;;;;;;;;;;;;14.37;72.30;101560.50;5049927;28;19925;-47
2021/09/29 14:37:25;;;;;;;;;;;;;;;14.34;73.26;101561.56;5048902;28;19924;-48
2021/09/29 14:39:52;;;;;;;;;;;;;;;14.35;74.39;101562.41;5066760;28;20380;-50
2021/09/29 14:42:18;;;;;;;;;;;;;;;14.29;73.38;101562.81;5051191;28;19924;-46
2021/09/29 14:44:45;;;;;;;;;;;;;;;14.27;72.80;101578.78;5052503;28;19925;-45
2021/09/29 14:47:12;;;;;;;;;;;;;;;14.08;70.40;101591.59;5049506;28;19928;-48
2021/09/29 14:49:41;;;;;;;;;;;;;;;14.15;70.42;101592.88;5049281;28;20217;-54
2021/09/29 14:52:08;;;;;;;;;;;;;;;14.12;69.73;101622.19;5049412;28;19924;-52
2021/09/29 14:54:35;;;;;;;;;;;;;;;13.79;68.59;101634.06;5032018;28;19936;-56
2021/09/29 14:57:03;;;;;;;;;;;;;;;13.43;67.92;101643.44;5051819;28;19925;-54
2021/09/29 14:59:30;;;;;;;;;;;;;;;13.18;68.91;101645.00;5052356;28;19970;-56
2021/09/29 15:01:56;;;;;;;;;;;;;;;13.10;70.58;101636.72;5049534;28;19925;-46
2021/09/29 15:04:23;;;;;;;;;;;;;;;13.02;73.09;101643.31;5049364;28;19967;-50
2021/09/29 15:06:50;;;;;;;;;;;;;;;12.84;71.28;101645.34;5064736;28;20334;-46
2021/09/29 15:09:17;;;;;;;;;;;;;;;12.93;72.78;101641.25;5064706;28;20028;-45
2021/09/29 15:11:43;;;;;;;;;;;;;;;12.68;72.54;101649.88;5047608;28;19940;-47
2021/09/29 15:22:10;;;;;;;;;;;;;;;12.65;78.60;101672.00;5052815;28;19929;-48
2021/09/29 15:27:37;;;;;;;;;;;;;;;12.76;78.58;101670.50;5051249;28;19936;-47
2021/09/29 15:49:22;;;;;;;;;;;;;;;12.03;84.09;101709.06;5054987;28;19932;-45
2021/09/29 15:51:54;;;;;;;;;;;;;;;12.01;84.91;101716.19;5052768;28;19971;-42
2021/09/29 15:59:39;;;;;;;;;;;;;;;11.88;85.80;101742.38;5051859;28;19924;-43
2021/09/29 16:02:19;;;;;;;;;;;;;;;11.76;85.90;101735.19;5052532;28;19925;-45
2021/09/29 16:07:55;;;;;;;;;;;;;;;11.61;87.86;101740.34;5042689;28;19935;-44
2021/09/29 16:13:15;;;;;;;;;;;;;;;11.45;85.75;101736.84;5053999;28;20396;-44
2021/09/29 16:15:59;;;;;;;;;;;;;;;11.44;87.98;101738.66;5052204;28;19929;-47
2021/09/29 16:32:13;;;;;;;;;;;;;;;11.14;86.98;101788.56;5052081;28;19925;-45